Flight Track Log - Related Links

Times and Time Zones

All times are in EDT time to prevent confusion due to time zone crossing. See the SKW5500 flight status page for this flight to view local times or setup timezone preferences in your user account.

Time Position Orientation Groundspeed Altitude Reporting Facility
EDT Latitude Longitude Course Direction KTS MPH feet Rate Location/Type
Sun 05:35:55 PM 39.8333 -104.8000 254° West 233 268 8,300  Level Denver TRACON
Sun 05:37:01 PM 39.8333 -104.9000 270° West 277 319 10,400 2,105 Climbing Denver TRACON
Sun 05:37:49 PM 39.8333 -104.9833 270° West 292 336 12,300 2,704 Climbing Denver TRACON
Sun 05:38:00 PM 39.7707 -105.1491 259° West  Level FlightAware Approximate
Sun 05:38:12 PM 39.8222 -105.0233 250° West 291 335 13,600  Level Denver Center
Sun 05:39:00 PM 39.7520 -105.2703 259° West  Level FlightAware Approximate
Sun 05:39:14 PM 39.8011 -105.1350 256° West 299 344 16,800  Level Denver Center
Sun 05:40:00 PM 39.7376 -105.3914 255° West  Level FlightAware Approximate
Sun 05:40:16 PM 39.7817 -105.2364 256° West 293 337 19,100  Level Denver Center
Sun 05:41:00 PM 39.7121 -105.5104 254° West  Level FlightAware Approximate
Sun 05:41:18 PM 39.7608 -105.3428 256° West 304 350 20,900  Level Denver Center
Sun 05:42:20 PM 39.7375 -105.4597 255° West 311 358 22,000 532 Climbing Denver Center
Sun 05:43:22 PM 39.7194 -105.5875 260° West 360 414 22,000  Level Denver Center
Sun 05:44:24 PM 39.7022 -105.7275 261° West 362 417 22,000  Level Denver Center
Sun 05:45:26 PM 39.6853 -105.8550 260° West 348 400 22,000  Level Denver Center
Sun 05:46:28 PM 39.6694 -105.9814 261° West 352 405 22,000 -339 Level Denver Center
Sun 05:47:30 PM 39.6528 -106.1047 260° West 346 398 21,300 -1,065 Descending Denver Center
Sun 05:48:32 PM 39.6375 -106.2331 261° West 332 382 19,800 -1,355 Descending Denver Center
Sun 05:49:34 PM 39.6211 -106.3439 259° West 316 364 18,500 -1,210 Descending Denver Center
Sun 05:50:36 PM 39.5964 -106.4517 253° West 311 358 17,300 -1,056 Descending Denver Center
Sun 05:51:39 PM 39.5719 -106.5636 254° West 299 344 16,300 -672 Descending Denver Center
Sun 05:52:41 PM 39.5517 -106.6553 254° West 280 322 15,900 -488 Descending Denver Center
Sun 05:53:42 PM 39.5378 -106.7289 256° West 267 307 15,300 -968 Descending Denver Center
Sun 05:54:45 PM 39.5178 -106.8431 257° West 245 282 13,900 -672 Descending Denver Center
Sun 05:55:47 PM 39.5033 -106.9139 255° West 205 236 13,900 -48 Level Denver Center
Sun 05:56:49 PM 39.4731 -106.9622 231° Southwest 186 214 13,800 -290 Descending Denver Center
Sun 05:57:51 PM 39.4247 -106.9664 184° South 186 214 13,300 -726 Descending Denver Center
Sun 05:58:53 PM 39.3736 -106.9414 159° South 178 205 12,300 -1,258 Descending Denver Center
Sun 05:59:55 PM 39.3283 -106.9203 160° South 175 201 10,700 -1,548 Descending Denver Center

Login

Don't have an account? Register now (free) for customized features, flight alerts, and more!